createdAt,value
2017-03-29T00:02:12.756Z,11.16
2017-03-29T00:05:18.168Z,11.07
2017-03-29T00:08:23.679Z,11.09
2017-03-29T00:11:29.190Z,11.01
2017-03-29T00:14:34.587Z,10.92
2017-03-29T00:17:40.157Z,10.85
2017-03-29T00:20:45.689Z,10.73
2017-03-29T00:23:51.249Z,10.68
2017-03-29T00:26:56.606Z,10.64
2017-03-29T00:33:06.441Z,10.58
2017-03-29T00:36:11.793Z,10.49
2017-03-29T00:39:17.096Z,10.39
2017-03-29T00:42:22.506Z,10.31
2017-03-29T00:45:27.882Z,10.25
2017-03-29T00:48:33.281Z,10.15
2017-03-29T00:51:30.756Z,10.16
2017-03-29T00:57:50.592Z,10.11
2017-03-29T01:00:55.946Z,10.09
2017-03-29T01:07:07.321Z,10.12
2017-03-29T01:10:12.598Z,10.11
2017-03-29T01:13:18.132Z,10.13
2017-03-29T01:16:23.712Z,10.08
2017-03-29T01:19:28.948Z,10.11
2017-03-29T01:22:34.303Z,10.07
2017-03-29T01:25:39.627Z,10.03
2017-03-29T01:28:44.982Z,9.97
2017-03-29T01:31:50.364Z,9.98
2017-03-29T01:34:55.802Z,9.91
2017-03-29T01:38:01.300Z,9.93
2017-03-29T01:41:06.582Z,9.94
2017-03-29T01:44:11.715Z,9.90
2017-03-29T01:47:17.142Z,9.89
2017-03-29T01:50:22.506Z,9.93
2017-03-29T01:53:27.976Z,9.94
2017-03-29T01:56:33.359Z,9.90
2017-03-29T01:59:38.831Z,9.85
2017-03-29T02:02:44.238Z,9.84
2017-03-29T02:05:49.620Z,9.87
2017-03-29T02:08:55.115Z,9.87
2017-03-29T02:12:00.411Z,9.85
2017-03-29T02:15:05.833Z,9.85
2017-03-29T02:18:10.562Z,9.84
2017-03-29T02:21:15.832Z,9.76
2017-03-29T02:24:20.936Z,9.73
2017-03-29T02:27:26.419Z,9.66
2017-03-29T02:30:31.776Z,9.64
2017-03-29T02:33:37.282Z,9.65
2017-03-29T02:36:42.563Z,9.56
2017-03-29T02:39:48.061Z,9.52
2017-03-29T02:42:53.391Z,9.48
2017-03-29T02:45:58.720Z,9.45
2017-03-29T02:49:04.087Z,9.45
2017-03-29T02:52:09.641Z,9.42
2017-03-29T02:55:14.868Z,9.42
2017-03-29T02:58:20.202Z,9.40
2017-03-29T03:01:25.663Z,9.35
2017-03-29T03:07:36.372Z,9.22
2017-03-29T03:10:41.397Z,9.24
2017-03-29T03:13:46.752Z,9.20
2017-03-29T03:16:51.729Z,9.19
2017-03-29T03:19:57.137Z,9.16
2017-03-29T03:23:02.481Z,9.15
2017-03-29T03:26:07.967Z,9.15
2017-03-29T03:29:13.153Z,9.15
2017-03-29T03:32:18.574Z,9.14
2017-03-29T03:35:24.105Z,9.13
2017-03-29T03:38:29.529Z,9.14
2017-03-29T03:41:34.939Z,9.16
2017-03-29T03:44:40.109Z,9.21
2017-03-29T03:47:45.520Z,9.27
2017-03-29T03:50:50.560Z,9.29
2017-03-29T03:53:55.725Z,9.28
2017-03-29T03:57:00.972Z,9.30
2017-03-29T04:00:06.530Z,9.32
2017-03-29T04:06:17.541Z,9.42
2017-03-29T04:09:22.872Z,9.45
2017-03-29T04:12:28.259Z,9.48
2017-03-29T04:18:39.412Z,9.53
2017-03-29T04:21:44.671Z,9.55
2017-03-29T04:24:50.071Z,9.54
2017-03-29T04:27:55.457Z,9.53
2017-03-29T04:31:00.928Z,9.52
2017-03-29T04:34:05.884Z,9.50
2017-03-29T04:37:10.970Z,9.50
2017-03-29T04:40:16.348Z,9.50
2017-03-29T04:43:21.780Z,9.52
2017-03-29T04:46:27.071Z,9.55
2017-03-29T04:52:38.062Z,9.60
2017-03-29T04:55:43.421Z,9.65
2017-03-29T04:58:48.824Z,9.68
2017-03-29T05:01:54.293Z,9.70
2017-03-29T05:04:59.871Z,9.71
2017-03-29T05:08:05.303Z,9.72
2017-03-29T05:11:10.750Z,9.75
2017-03-29T05:14:16.187Z,9.76
2017-03-29T05:17:21.629Z,9.77
2017-03-29T05:20:26.986Z,9.78
2017-03-29T05:23:32.413Z,9.77
2017-03-29T05:29:42.955Z,9.76
2017-03-29T05:35:54.049Z,9.79
2017-03-29T05:38:59.535Z,9.82
2017-03-29T05:42:05.054Z,9.82
2017-03-29T05:45:10.494Z,9.84
2017-03-29T05:48:15.782Z,9.89
2017-03-29T05:51:21.247Z,9.90
2017-03-29T05:54:26.736Z,9.94
2017-03-29T05:57:32.358Z,9.96
2017-03-29T06:00:37.749Z,9.99
2017-03-29T06:03:43.292Z,10.05
2017-03-29T06:06:48.312Z,10.09
2017-03-29T06:09:53.384Z,10.14
2017-03-29T06:12:58.923Z,10.17
2017-03-29T06:16:04.263Z,10.20
2017-03-29T06:19:09.739Z,10.22
2017-03-29T06:22:15.150Z,10.22
2017-03-29T06:25:20.546Z,10.22
2017-03-29T06:28:26.080Z,10.22
2017-03-29T06:31:31.593Z,10.23
2017-03-29T06:37:42.948Z,10.23
2017-03-29T06:40:48.339Z,10.27
2017-03-29T06:43:53.795Z,10.29
2017-03-29T06:46:59.253Z,10.34
2017-03-29T06:50:04.593Z,10.38
2017-03-29T06:53:10.165Z,10.41
2017-03-29T06:56:15.080Z,10.45
2017-03-29T07:02:25.131Z,10.47
2017-03-29T07:05:30.577Z,10.47
2017-03-29T07:08:35.820Z,10.43
2017-03-29T07:11:41.258Z,10.42
2017-03-29T07:17:52.470Z,10.43
2017-03-29T07:20:58.043Z,10.43
2017-03-29T07:24:02.836Z,10.41
2017-03-29T07:27:08.405Z,10.42
2017-03-29T07:30:13.903Z,10.41
2017-03-29T07:33:19.415Z,10.39
2017-03-29T07:36:24.998Z,10.39
2017-03-29T07:39:30.435Z,10.40
2017-03-29T07:42:35.576Z,10.42
2017-03-29T07:45:41.075Z,10.43
2017-03-29T07:48:46.364Z,10.44
2017-03-29T07:51:51.981Z,10.46
2017-03-29T07:54:57.348Z,10.49
2017-03-29T07:58:02.741Z,10.54
2017-03-29T08:01:08.384Z,10.53
2017-03-29T08:04:13.912Z,10.54
2017-03-29T08:07:19.479Z,10.57
2017-03-29T08:10:24.905Z,10.61
2017-03-29T08:13:30.575Z,10.60
2017-03-29T08:16:35.947Z,10.62
2017-03-29T08:19:41.297Z,10.66
2017-03-29T08:22:46.889Z,10.67
2017-03-29T08:25:52.531Z,10.69
2017-03-29T08:28:58.005Z,10.83
2017-03-29T08:32:03.328Z,11.11
2017-03-29T08:35:08.949Z,11.40
2017-03-29T08:41:20.524Z,11.66
2017-03-29T08:44:26.209Z,11.77
2017-03-29T08:47:31.538Z,11.77
2017-03-29T08:50:36.989Z,11.88
2017-03-29T08:53:42.539Z,11.93
2017-03-29T08:56:48.298Z,11.92
2017-03-29T08:59:53.537Z,11.80
2017-03-29T09:02:59.138Z,11.70
2017-03-29T09:06:04.813Z,11.57
2017-03-29T09:09:10.307Z,11.49
2017-03-29T09:12:15.977Z,11.49
2017-03-29T09:15:21.281Z,11.56
2017-03-29T09:18:27.005Z,11.66
2017-03-29T09:21:32.260Z,11.79
2017-03-29T09:24:37.695Z,11.87
2017-03-29T09:27:43.185Z,12.06
2017-03-29T09:30:48.909Z,12.19
2017-03-29T09:33:54.375Z,12.20
2017-03-29T09:36:59.972Z,12.18
2017-03-29T09:40:05.599Z,12.19
2017-03-29T09:43:06.016Z,12.15
2017-03-29T09:46:17.046Z,12.08
2017-03-29T09:49:22.716Z,12.05
2017-03-29T09:52:28.258Z,12.11
2017-03-29T09:55:33.391Z,12.24
2017-03-29T09:58:38.987Z,12.32
2017-03-29T10:01:44.563Z,12.31
2017-03-29T10:04:50.077Z,12.28
2017-03-29T10:07:55.683Z,12.24
2017-03-29T10:11:01.252Z,12.19
2017-03-29T10:14:06.606Z,12.14
2017-03-29T10:17:12.147Z,12.11
2017-03-29T10:23:23.661Z,12.17
2017-03-29T10:26:29.262Z,12.27
2017-03-29T10:29:34.819Z,12.35
2017-03-29T10:32:40.348Z,12.38
2017-03-29T10:35:45.835Z,12.36
2017-03-29T10:38:51.014Z,12.34
2017-03-29T10:41:56.422Z,12.32
2017-03-29T10:45:02.150Z,12.31
2017-03-29T10:48:07.718Z,12.30
2017-03-29T10:54:19.340Z,12.29
2017-03-29T10:57:24.679Z,12.38
2017-03-29T11:00:30.316Z,12.47
2017-03-29T11:03:35.693Z,12.56
2017-03-29T11:06:41.254Z,12.64
2017-03-29T11:09:47.018Z,12.68
2017-03-29T11:12:52.603Z,12.65
2017-03-29T11:15:58.217Z,12.71
2017-03-29T11:19:03.968Z,12.80
2017-03-29T11:25:09.635Z,12.95
2017-03-29T11:28:20.611Z,13.00
2017-03-29T11:31:26.376Z,13.11
2017-03-29T11:34:31.599Z,13.14
2017-03-29T11:37:37.066Z,13.18
2017-03-29T11:40:42.705Z,13.33
2017-03-29T11:43:48.409Z,13.46
2017-03-29T11:46:53.963Z,13.70
2017-03-29T11:49:59.764Z,13.58
2017-03-29T11:53:05.422Z,13.43
2017-03-29T12:05:28.520Z,13.33
2017-03-29T12:08:34.187Z,13.29
2017-03-29T12:11:39.801Z,13.28
2017-03-29T12:14:45.043Z,13.27
2017-03-29T12:17:50.724Z,13.33
2017-03-29T12:20:56.263Z,13.45
2017-03-29T12:24:02.031Z,13.62
2017-03-29T12:27:07.764Z,14.04
2017-03-29T12:30:13.510Z,14.09
2017-03-29T12:36:25.217Z,14.60
2017-03-29T12:39:31.046Z,14.74
2017-03-29T12:42:29.023Z,14.87
2017-03-29T12:45:43.385Z,15.19
2017-03-29T12:48:49.116Z,15.05
2017-03-29T12:51:55.003Z,15.86
2017-03-29T12:55:00.563Z,16.40
2017-03-29T12:57:58.521Z,17.32
2017-03-29T13:01:12.894Z,17.82
2017-03-29T13:04:18.688Z,18.10
2017-03-29T13:07:24.623Z,18.32
2017-03-29T13:10:30.556Z,18.59
2017-03-29T13:13:36.508Z,18.46
2017-03-29T13:16:42.124Z,18.63
2017-03-29T13:22:53.966Z,18.21
2017-03-29T13:25:59.585Z,17.90
2017-03-29T13:29:05.385Z,17.72
2017-03-29T13:32:11.092Z,17.36
2017-03-29T13:35:17.047Z,17.28
2017-03-29T13:38:22.911Z,17.97
2017-03-29T13:41:28.866Z,17.75
2017-03-29T13:44:34.292Z,17.35
2017-03-29T13:47:40.175Z,17.03
2017-03-29T13:50:45.923Z,16.91
2017-03-29T13:53:51.700Z,16.90
2017-03-29T13:56:57.559Z,16.48
2017-03-29T14:00:03.296Z,16.24
2017-03-29T14:03:09.002Z,15.97
2017-03-29T14:06:14.797Z,15.73
2017-03-29T14:09:20.469Z,15.63
2017-03-29T14:12:26.247Z,16.06
2017-03-29T14:15:32.022Z,16.08
2017-03-29T14:18:36.893Z,15.91
2017-03-29T14:21:42.447Z,15.76
2017-03-29T14:24:48.241Z,15.76
2017-03-29T14:27:53.654Z,16.22
2017-03-29T14:30:59.517Z,16.36
2017-03-29T14:34:04.038Z,16.21
2017-03-29T14:37:09.881Z,16.29
2017-03-29T14:40:15.653Z,15.96
2017-03-29T14:43:21.304Z,15.69
2017-03-29T14:46:26.869Z,15.63
2017-03-29T14:49:32.746Z,15.61
2017-03-29T14:52:38.605Z,15.53
2017-03-29T14:55:44.175Z,15.41
2017-03-29T14:58:49.830Z,15.35
2017-03-29T15:01:55.557Z,15.45
2017-03-29T15:05:01.211Z,15.41
2017-03-29T15:08:06.551Z,15.36
2017-03-29T15:11:12.221Z,15.55
2017-03-29T15:14:19.083Z,15.55
2017-03-29T15:17:24.735Z,15.67
2017-03-29T15:20:30.291Z,15.80
2017-03-29T15:23:36.021Z,15.83
2017-03-29T15:26:41.785Z,15.44
2017-03-29T15:29:47.521Z,15.23
2017-03-29T15:32:53.251Z,15.07
2017-03-29T15:35:58.842Z,15.05
2017-03-29T15:39:04.524Z,14.96
2017-03-29T15:42:10.268Z,14.92
2017-03-29T15:45:16.085Z,14.94
2017-03-29T15:48:21.753Z,14.90
2017-03-29T15:51:27.256Z,14.79
2017-03-29T15:57:37.475Z,14.63
2017-03-29T16:00:42.414Z,14.58
2017-03-29T16:03:48.257Z,14.49
2017-03-29T16:06:53.854Z,14.49
2017-03-29T16:09:59.579Z,14.39
2017-03-29T16:13:05.423Z,14.40
2017-03-29T16:16:10.981Z,14.40
2017-03-29T16:19:16.696Z,14.43
2017-03-29T16:22:22.554Z,14.44
2017-03-29T16:25:28.244Z,14.44
2017-03-29T16:28:34.077Z,14.37
2017-03-29T16:31:39.849Z,14.28
2017-03-29T16:34:45.639Z,14.20
2017-03-29T16:37:50.860Z,14.23
2017-03-29T16:40:56.399Z,14.16
2017-03-29T16:44:02.350Z,14.12
2017-03-29T16:47:07.955Z,14.05
2017-03-29T16:50:13.566Z,13.99
2017-03-29T16:53:19.305Z,13.92
2017-03-29T16:56:25.056Z,13.90
2017-03-29T16:59:30.626Z,13.84
2017-03-29T17:05:42.411Z,13.81
2017-03-29T17:08:47.213Z,13.81
2017-03-29T17:11:52.934Z,13.85
2017-03-29T17:14:58.718Z,13.90
2017-03-29T17:18:04.393Z,13.89
2017-03-29T17:21:09.830Z,13.82
2017-03-29T17:24:15.487Z,13.73
2017-03-29T17:27:21.196Z,13.65
2017-03-29T17:30:26.974Z,13.63
2017-03-29T17:33:32.160Z,13.59
2017-03-29T17:36:37.726Z,13.55
2017-03-29T17:39:43.326Z,13.51
2017-03-29T17:42:48.665Z,13.49
2017-03-29T17:45:54.329Z,13.48
2017-03-29T17:49:00.000Z,13.42
2017-03-29T17:52:05.546Z,13.42
2017-03-29T17:55:11.155Z,13.34
2017-03-29T17:58:16.617Z,13.31
2017-03-29T18:01:22.001Z,13.27
2017-03-29T18:04:27.480Z,13.22
2017-03-29T18:07:32.856Z,13.15
2017-03-29T18:10:33.487Z,13.10
2017-03-29T18:13:44.321Z,13.11
2017-03-29T18:16:49.779Z,13.05
2017-03-29T18:19:55.248Z,13.00
2017-03-29T18:23:00.836Z,12.98
2017-03-29T18:26:06.620Z,12.92
2017-03-29T18:29:12.393Z,12.90
2017-03-29T18:32:17.935Z,12.92
2017-03-29T18:35:23.483Z,12.89
2017-03-29T18:38:29.141Z,12.83
2017-03-29T18:41:34.684Z,12.88
2017-03-29T18:47:46.304Z,12.87
2017-03-29T18:50:51.921Z,12.81
2017-03-29T18:53:57.399Z,12.81
2017-03-29T18:57:02.941Z,12.81
2017-03-29T19:00:03.595Z,12.84
2017-03-29T19:03:14.798Z,12.81
2017-03-29T19:06:20.453Z,12.76
2017-03-29T19:09:26.050Z,12.74
2017-03-29T19:12:31.772Z,12.68
2017-03-29T19:15:37.469Z,12.66
2017-03-29T19:18:43.059Z,12.64
2017-03-29T19:21:48.670Z,12.62
2017-03-29T19:27:59.729Z,12.62
2017-03-29T19:31:05.275Z,12.63
2017-03-29T19:34:10.818Z,12.59
2017-03-29T19:37:16.285Z,12.52
2017-03-29T19:40:21.934Z,12.46
2017-03-29T19:43:27.362Z,12.43
2017-03-29T19:46:32.917Z,12.39
2017-03-29T19:49:38.535Z,12.37
2017-03-29T19:52:44.173Z,12.36
2017-03-29T19:55:49.941Z,12.37
2017-03-29T19:58:55.592Z,12.38
2017-03-29T20:02:01.209Z,12.35
2017-03-29T20:05:06.865Z,12.36
2017-03-29T20:08:12.476Z,12.33
2017-03-29T20:11:18.063Z,12.29
2017-03-29T20:14:23.675Z,12.29
2017-03-29T20:17:29.297Z,12.27
2017-03-29T20:20:34.756Z,12.22
2017-03-29T20:23:40.326Z,12.19
2017-03-29T20:26:46.001Z,12.19
2017-03-29T20:29:51.547Z,12.18
2017-03-29T20:32:57.213Z,12.19
2017-03-29T20:36:02.859Z,12.17
2017-03-29T20:39:08.543Z,12.17
2017-03-29T20:42:14.113Z,12.13
2017-03-29T20:45:19.832Z,12.11
2017-03-29T20:51:31.133Z,11.99
2017-03-29T20:54:36.666Z,11.91
2017-03-29T20:57:42.264Z,11.85
2017-03-29T21:00:47.693Z,11.77
2017-03-29T21:03:53.345Z,11.71
2017-03-29T21:06:58.676Z,11.66
2017-03-29T21:10:04.206Z,11.58
2017-03-29T21:13:09.582Z,11.47
2017-03-29T21:16:15.083Z,11.39
2017-03-29T21:19:20.754Z,11.43
2017-03-29T21:22:26.138Z,11.46
2017-03-29T21:25:31.667Z,11.51
2017-03-29T21:28:37.290Z,11.50
2017-03-29T21:31:42.878Z,11.45
2017-03-29T21:34:48.520Z,11.41
2017-03-29T21:37:53.983Z,11.37
2017-03-29T21:40:59.632Z,11.39
2017-03-29T21:44:04.328Z,11.35
2017-03-29T21:47:09.800Z,11.43
2017-03-29T21:50:15.304Z,11.45
2017-03-29T21:53:20.557Z,11.46
2017-03-29T21:56:26.133Z,11.48
2017-03-29T21:59:31.653Z,11.42
2017-03-29T22:02:37.183Z,11.42
2017-03-29T22:05:42.749Z,11.41
2017-03-29T22:08:48.228Z,11.39
2017-03-29T22:11:53.633Z,11.44
2017-03-29T22:14:59.166Z,11.40
2017-03-29T22:18:04.801Z,11.39
2017-03-29T22:21:10.264Z,11.40
2017-03-29T22:24:15.788Z,11.41
2017-03-29T22:27:21.354Z,11.36
2017-03-29T22:33:32.760Z,11.26
2017-03-29T22:36:38.174Z,11.29
2017-03-29T22:39:35.718Z,11.25
2017-03-29T22:42:49.497Z,11.23
2017-03-29T22:45:54.728Z,11.21
2017-03-29T22:49:00.353Z,11.24
2017-03-29T22:52:05.952Z,11.27
2017-03-29T22:55:11.568Z,11.24
2017-03-29T22:58:12.147Z,11.23
2017-03-29T23:01:23.115Z,11.24
2017-03-29T23:04:28.634Z,11.23
2017-03-29T23:07:34.175Z,11.24
2017-03-29T23:10:39.732Z,11.24
2017-03-29T23:13:44.746Z,11.23
2017-03-29T23:16:50.103Z,11.22
2017-03-29T23:19:55.602Z,11.17
2017-03-29T23:23:01.156Z,11.19
2017-03-29T23:26:06.556Z,11.15
2017-03-29T23:32:17.971Z,11.10
2017-03-29T23:35:23.516Z,11.12
2017-03-29T23:38:29.068Z,11.14
2017-03-29T23:41:34.594Z,11.11
2017-03-29T23:44:39.942Z,11.09
2017-03-29T23:47:45.492Z,11.03
2017-03-29T23:50:51.102Z,10.99
2017-03-29T23:53:56.602Z,10.97
2017-03-29T23:57:02.080Z,10.96
